sensor_id;sensor_type;location;lat;lon;timestamp;P1;durP1;ratioP1;P2;durP2;ratioP2
31660;SDS011;18267;52.234;7.444;2023-07-09T00:01:52;6.40;;;4.13;;
31660;SDS011;18267;52.234;7.444;2023-07-09T00:04:18;5.38;;;4.32;;
31660;SDS011;18267;52.234;7.444;2023-07-09T00:06:49;5.10;;;4.22;;
31660;SDS011;18267;52.234;7.444;2023-07-09T00:09:47;6.18;;;3.75;;
31660;SDS011;18267;52.234;7.444;2023-07-09T00:12:15;6.68;;;4.95;;
31660;SDS011;18267;52.234;7.444;2023-07-09T00:14:42;5.22;;;4.15;;
31660;SDS011;18267;52.234;7.444;2023-07-09T00:17:11;7.13;;;4.60;;
31660;SDS011;18267;52.234;7.444;2023-07-09T00:19:44;8.50;;;4.25;;
31660;SDS011;18267;52.234;7.444;2023-07-09T00:22:14;5.22;;;4.55;;
31660;SDS011;18267;52.234;7.444;2023-07-09T00:24:44;6.13;;;4.20;;
31660;SDS011;18267;52.234;7.444;2023-07-09T00:27:13;9.40;;;4.20;;
31660;SDS011;18267;52.234;7.444;2023-07-09T00:29:40;8.02;;;4.53;;
31660;SDS011;18267;52.234;7.444;2023-07-09T00:32:13;7.43;;;3.80;;
31660;SDS011;18267;52.234;7.444;2023-07-09T00:34:45;4.75;;;4.00;;
31660;SDS011;18267;52.234;7.444;2023-07-09T00:37:18;4.40;;;4.00;;
31660;SDS011;18267;52.234;7.444;2023-07-09T00:39:48;5.00;;;4.30;;
31660;SDS011;18267;52.234;7.444;2023-07-09T00:42:17;6.65;;;4.22;;
31660;SDS011;18267;52.234;7.444;2023-07-09T00:44:47;5.47;;;3.78;;
31660;SDS011;18267;52.234;7.444;2023-07-09T00:47:26;9.38;;;4.28;;
31660;SDS011;18267;52.234;7.444;2023-07-09T00:53:25;9.68;;;4.63;;
31660;SDS011;18267;52.234;7.444;2023-07-09T00:56:05;7.00;;;4.50;;
31660;SDS011;18267;52.234;7.444;2023-07-09T00:58:33;6.22;;;4.80;;
31660;SDS011;18267;52.234;7.444;2023-07-09T01:01:03;6.43;;;4.40;;
31660;SDS011;18267;52.234;7.444;2023-07-09T01:03:34;8.18;;;4.28;;
31660;SDS011;18267;52.234;7.444;2023-07-09T01:06:15;5.60;;;4.45;;
31660;SDS011;18267;52.234;7.444;2023-07-09T01:08:55;5.47;;;4.80;;
31660;SDS011;18267;52.234;7.444;2023-07-09T01:11:23;10.18;;;4.57;;
31660;SDS011;18267;52.234;7.444;2023-07-09T01:13:52;4.63;;;4.18;;
31660;SDS011;18267;52.234;7.444;2023-07-09T01:16:21;6.78;;;4.68;;
31660;SDS011;18267;52.234;7.444;2023-07-09T01:19:07;8.00;;;5.03;;
31660;SDS011;18267;52.234;7.444;2023-07-09T01:21:40;7.57;;;4.95;;
31660;SDS011;18267;52.234;7.444;2023-07-09T01:24:15;5.40;;;4.28;;
31660;SDS011;18267;52.234;7.444;2023-07-09T01:27:03;5.28;;;4.43;;
31660;SDS011;18267;52.234;7.444;2023-07-09T01:29:32;8.05;;;5.20;;
31660;SDS011;18267;52.234;7.444;2023-07-09T01:32:00;5.15;;;4.40;;
31660;SDS011;18267;52.234;7.444;2023-07-09T01:34:28;10.02;;;5.07;;
31660;SDS011;18267;52.234;7.444;2023-07-09T01:36:55;7.63;;;4.60;;
31660;SDS011;18267;52.234;7.444;2023-07-09T01:39:21;7.70;;;4.95;;
31660;SDS011;18267;52.234;7.444;2023-07-09T01:41:48;5.35;;;4.55;;
31660;SDS011;18267;52.234;7.444;2023-07-09T01:44:13;6.03;;;4.63;;
31660;SDS011;18267;52.234;7.444;2023-07-09T01:46:48;5.90;;;5.07;;
31660;SDS011;18267;52.234;7.444;2023-07-09T01:49:16;7.30;;;4.97;;
31660;SDS011;18267;52.234;7.444;2023-07-09T01:51:43;12.48;;;5.05;;
31660;SDS011;18267;52.234;7.444;2023-07-09T01:54:12;5.88;;;4.75;;
31660;SDS011;18267;52.234;7.444;2023-07-09T01:56:37;4.97;;;4.57;;
31660;SDS011;18267;52.234;7.444;2023-07-09T01:59:03;6.70;;;4.88;;
31660;SDS011;18267;52.234;7.444;2023-07-09T02:01:29;7.30;;;4.68;;
31660;SDS011;18267;52.234;7.444;2023-07-09T02:03:55;7.63;;;4.35;;
31660;SDS011;18267;52.234;7.444;2023-07-09T02:06:21;5.72;;;4.95;;
31660;SDS011;18267;52.234;7.444;2023-07-09T02:08:49;5.35;;;4.43;;
31660;SDS011;18267;52.234;7.444;2023-07-09T02:11:16;5.43;;;4.78;;
31660;SDS011;18267;52.234;7.444;2023-07-09T02:13:42;5.40;;;4.82;;
31660;SDS011;18267;52.234;7.444;2023-07-09T02:16:08;6.75;;;4.25;;
31660;SDS011;18267;52.234;7.444;2023-07-09T02:18:34;5.07;;;4.47;;
31660;SDS011;18267;52.234;7.444;2023-07-09T02:21:00;5.85;;;4.63;;
31660;SDS011;18267;52.234;7.444;2023-07-09T02:23:26;9.90;;;4.88;;
31660;SDS011;18267;52.234;7.444;2023-07-09T02:25:53;6.00;;;4.80;;
31660;SDS011;18267;52.234;7.444;2023-07-09T02:28:24;7.78;;;4.57;;
31660;SDS011;18267;52.234;7.444;2023-07-09T02:31:02;7.28;;;4.80;;
31660;SDS011;18267;52.234;7.444;2023-07-09T02:33:28;8.57;;;4.70;;
31660;SDS011;18267;52.234;7.444;2023-07-09T02:36:16;6.55;;;4.78;;
31660;SDS011;18267;52.234;7.444;2023-07-09T02:38:41;5.75;;;4.63;;
31660;SDS011;18267;52.234;7.444;2023-07-09T02:41:07;10.30;;;5.90;;
31660;SDS011;18267;52.234;7.444;2023-07-09T02:43:44;8.27;;;5.03;;
31660;SDS011;18267;52.234;7.444;2023-07-09T02:46:10;7.88;;;4.82;;
31660;SDS011;18267;52.234;7.444;2023-07-09T02:48:48;8.40;;;5.45;;
31660;SDS011;18267;52.234;7.444;2023-07-09T02:51:13;9.60;;;4.55;;
31660;SDS011;18267;52.234;7.444;2023-07-09T02:53:39;6.65;;;5.25;;
31660;SDS011;18267;52.234;7.444;2023-07-09T02:56:04;6.28;;;4.95;;
31660;SDS011;18267;52.234;7.444;2023-07-09T02:58:30;6.75;;;5.03;;
31660;SDS011;18267;52.234;7.444;2023-07-09T03:00:56;9.77;;;5.00;;
31660;SDS011;18267;52.234;7.444;2023-07-09T03:03:22;6.95;;;4.95;;
31660;SDS011;18267;52.234;7.444;2023-07-09T03:05:48;11.80;;;5.05;;
31660;SDS011;18267;52.234;7.444;2023-07-09T03:08:14;8.45;;;5.07;;
31660;SDS011;18267;52.234;7.444;2023-07-09T03:10:40;6.00;;;4.88;;
31660;SDS011;18267;52.234;7.444;2023-07-09T03:13:06;5.80;;;5.10;;
31660;SDS011;18267;52.234;7.444;2023-07-09T03:15:32;6.93;;;5.15;;
31660;SDS011;18267;52.234;7.444;2023-07-09T03:17:58;8.60;;;6.03;;
31660;SDS011;18267;52.234;7.444;2023-07-09T03:20:28;8.00;;;5.40;;
31660;SDS011;18267;52.234;7.444;2023-07-09T03:22:57;7.10;;;5.18;;
31660;SDS011;18267;52.234;7.444;2023-07-09T03:25:23;6.15;;;4.82;;
31660;SDS011;18267;52.234;7.444;2023-07-09T03:27:58;8.20;;;5.60;;
31660;SDS011;18267;52.234;7.444;2023-07-09T03:30:23;6.40;;;5.10;;
31660;SDS011;18267;52.234;7.444;2023-07-09T03:32:50;7.20;;;4.60;;
31660;SDS011;18267;52.234;7.444;2023-07-09T03:35:22;9.30;;;5.22;;
31660;SDS011;18267;52.234;7.444;2023-07-09T03:37:47;5.63;;;4.97;;
31660;SDS011;18267;52.234;7.444;2023-07-09T03:40:19;5.80;;;4.60;;
31660;SDS011;18267;52.234;7.444;2023-07-09T03:42:48;5.18;;;4.55;;
31660;SDS011;18267;52.234;7.444;2023-07-09T03:45:14;6.90;;;5.30;;
31660;SDS011;18267;52.234;7.444;2023-07-09T03:47:40;11.77;;;5.65;;
31660;SDS011;18267;52.234;7.444;2023-07-09T03:50:06;5.88;;;4.75;;
31660;SDS011;18267;52.234;7.444;2023-07-09T03:52:33;7.65;;;5.20;;
31660;SDS011;18267;52.234;7.444;2023-07-09T03:54:59;10.55;;;5.00;;
31660;SDS011;18267;52.234;7.444;2023-07-09T03:57:26;7.25;;;4.95;;
31660;SDS011;18267;52.234;7.444;2023-07-09T03:59:52;8.50;;;5.65;;
31660;SDS011;18267;52.234;7.444;2023-07-09T04:02:18;9.40;;;6.07;;
31660;SDS011;18267;52.234;7.444;2023-07-09T04:04:43;11.40;;;5.10;;
31660;SDS011;18267;52.234;7.444;2023-07-09T04:07:09;9.45;;;4.97;;
31660;SDS011;18267;52.234;7.444;2023-07-09T04:09:35;6.82;;;5.28;;
31660;SDS011;18267;52.234;7.444;2023-07-09T04:12:00;6.72;;;5.55;;
31660;SDS011;18267;52.234;7.444;2023-07-09T04:14:39;10.80;;;5.90;;
31660;SDS011;18267;52.234;7.444;2023-07-09T04:17:05;13.23;;;6.13;;
31660;SDS011;18267;52.234;7.444;2023-07-09T04:19:31;12.68;;;6.18;;
31660;SDS011;18267;52.234;7.444;2023-07-09T04:21:56;11.52;;;6.13;;
31660;SDS011;18267;52.234;7.444;2023-07-09T04:24:22;9.52;;;6.07;;
31660;SDS011;18267;52.234;7.444;2023-07-09T04:26:48;9.98;;;5.28;;
31660;SDS011;18267;52.234;7.444;2023-07-09T04:29:13;6.35;;;5.28;;
31660;SDS011;18267;52.234;7.444;2023-07-09T04:31:40;7.82;;;5.88;;
31660;SDS011;18267;52.234;7.444;2023-07-09T04:34:07;12.68;;;6.15;;
31660;SDS011;18267;52.234;7.444;2023-07-09T04:36:33;7.50;;;5.75;;
31660;SDS011;18267;52.234;7.444;2023-07-09T04:39:00;10.40;;;5.63;;
31660;SDS011;18267;52.234;7.444;2023-07-09T04:41:25;10.40;;;4.93;;
31660;SDS011;18267;52.234;7.444;2023-07-09T04:43:51;8.15;;;5.55;;
31660;SDS011;18267;52.234;7.444;2023-07-09T04:46:17;9.43;;;6.10;;
31660;SDS011;18267;52.234;7.444;2023-07-09T04:48:45;8.00;;;5.72;;
31660;SDS011;18267;52.234;7.444;2023-07-09T04:51:10;8.60;;;5.80;;
31660;SDS011;18267;52.234;7.444;2023-07-09T04:53:53;7.43;;;5.80;;
31660;SDS011;18267;52.234;7.444;2023-07-09T04:56:35;8.27;;;6.15;;
31660;SDS011;18267;52.234;7.444;2023-07-09T04:59:05;12.25;;;5.78;;
31660;SDS011;18267;52.234;7.444;2023-07-09T05:01:38;7.00;;;5.75;;
31660;SDS011;18267;52.234;7.444;2023-07-09T05:04:23;10.85;;;5.88;;
31660;SDS011;18267;52.234;7.444;2023-07-09T05:06:49;9.43;;;5.97;;
31660;SDS011;18267;52.234;7.444;2023-07-09T05:09:14;9.45;;;5.95;;
31660;SDS011;18267;52.234;7.444;2023-07-09T05:11:40;10.10;;;5.93;;
31660;SDS011;18267;52.234;7.444;2023-07-09T05:14:05;8.63;;;6.00;;
31660;SDS011;18267;52.234;7.444;2023-07-09T05:16:31;8.43;;;6.35;;
31660;SDS011;18267;52.234;7.444;2023-07-09T05:18:56;10.13;;;6.68;;
31660;SDS011;18267;52.234;7.444;2023-07-09T05:21:22;11.43;;;5.95;;
31660;SDS011;18267;52.234;7.444;2023-07-09T05:23:47;8.45;;;5.95;;
31660;SDS011;18267;52.234;7.444;2023-07-09T05:26:13;11.18;;;6.20;;
31660;SDS011;18267;52.234;7.444;2023-07-09T05:28:39;8.82;;;6.00;;
31660;SDS011;18267;52.234;7.444;2023-07-09T05:31:05;11.57;;;5.82;;
31660;SDS011;18267;52.234;7.444;2023-07-09T05:33:31;6.93;;;5.45;;
31660;SDS011;18267;52.234;7.444;2023-07-09T05:35:56;6.30;;;5.55;;
31660;SDS011;18267;52.234;7.444;2023-07-09T05:38:22;8.40;;;6.07;;
31660;SDS011;18267;52.234;7.444;2023-07-09T05:40:48;8.82;;;5.78;;
31660;SDS011;18267;52.234;7.444;2023-07-09T05:43:13;9.32;;;5.90;;
31660;SDS011;18267;52.234;7.444;2023-07-09T05:45:39;8.60;;;5.88;;
31660;SDS011;18267;52.234;7.444;2023-07-09T05:48:05;9.57;;;5.10;;
31660;SDS011;18267;52.234;7.444;2023-07-09T05:50:32;9.93;;;6.95;;
31660;SDS011;18267;52.234;7.444;2023-07-09T05:52:59;6.95;;;5.72;;
31660;SDS011;18267;52.234;7.444;2023-07-09T05:55:24;11.07;;;5.75;;
31660;SDS011;18267;52.234;7.444;2023-07-09T05:57:51;13.18;;;6.30;;
31660;SDS011;18267;52.234;7.444;2023-07-09T06:00:17;8.63;;;6.22;;
31660;SDS011;18267;52.234;7.444;2023-07-09T06:02:43;10.32;;;5.78;;
31660;SDS011;18267;52.234;7.444;2023-07-09T06:05:09;9.48;;;5.63;;
31660;SDS011;18267;52.234;7.444;2023-07-09T06:07:36;6.35;;;5.20;;
31660;SDS011;18267;52.234;7.444;2023-07-09T06:10:02;11.55;;;5.72;;
31660;SDS011;18267;52.234;7.444;2023-07-09T06:12:30;7.50;;;5.75;;
31660;SDS011;18267;52.234;7.444;2023-07-09T06:14:56;9.40;;;6.43;;
31660;SDS011;18267;52.234;7.444;2023-07-09T06:17:21;9.02;;;6.00;;
31660;SDS011;18267;52.234;7.444;2023-07-09T06:19:47;7.95;;;5.50;;
31660;SDS011;18267;52.234;7.444;2023-07-09T06:22:12;11.45;;;5.68;;
31660;SDS011;18267;52.234;7.444;2023-07-09T06:24:38;6.00;;;4.93;;
31660;SDS011;18267;52.234;7.444;2023-07-09T06:27:03;8.93;;;5.28;;
31660;SDS011;18267;52.234;7.444;2023-07-09T06:29:29;9.52;;;6.30;;
31660;SDS011;18267;52.234;7.444;2023-07-09T06:31:55;7.65;;;5.55;;
31660;SDS011;18267;52.234;7.444;2023-07-09T06:34:20;10.38;;;4.93;;
31660;SDS011;18267;52.234;7.444;2023-07-09T06:36:48;6.85;;;5.97;;
31660;SDS011;18267;52.234;7.444;2023-07-09T06:39:14;6.13;;;5.43;;
31660;SDS011;18267;52.234;7.444;2023-07-09T06:41:39;10.43;;;5.15;;
31660;SDS011;18267;52.234;7.444;2023-07-09T06:44:08;8.57;;;5.45;;
31660;SDS011;18267;52.234;7.444;2023-07-09T06:46:34;6.85;;;5.25;;
31660;SDS011;18267;52.234;7.444;2023-07-09T06:49:00;8.23;;;5.30;;
31660;SDS011;18267;52.234;7.444;2023-07-09T06:51:27;6.20;;;5.07;;
31660;SDS011;18267;52.234;7.444;2023-07-09T06:53:53;6.68;;;5.60;;
31660;SDS011;18267;52.234;7.444;2023-07-09T06:56:18;7.25;;;5.05;;
31660;SDS011;18267;52.234;7.444;2023-07-09T06:58:45;7.80;;;5.10;;
31660;SDS011;18267;52.234;7.444;2023-07-09T07:01:12;5.30;;;4.75;;
31660;SDS011;18267;52.234;7.444;2023-07-09T07:03:38;6.70;;;5.40;;
31660;SDS011;18267;52.234;7.444;2023-07-09T07:06:12;8.73;;;4.83;;
31660;SDS011;18267;52.234;7.444;2023-07-09T07:08:38;5.53;;;4.57;;
31660;SDS011;18267;52.234;7.444;2023-07-09T07:11:04;5.78;;;4.20;;
31660;SDS011;18267;52.234;7.444;2023-07-09T07:13:33;5.95;;;4.28;;
31660;SDS011;18267;52.234;7.444;2023-07-09T07:16:00;11.50;;;5.03;;
31660;SDS011;18267;52.234;7.444;2023-07-09T07:18:27;7.22;;;4.72;;
31660;SDS011;18267;52.234;7.444;2023-07-09T07:20:52;10.65;;;4.75;;
31660;SDS011;18267;52.234;7.444;2023-07-09T07:23:18;8.18;;;4.35;;
31660;SDS011;18267;52.234;7.444;2023-07-09T07:28:40;9.55;;;5.22;;
31660;SDS011;18267;52.234;7.444;2023-07-09T07:31:07;5.00;;;4.18;;
31660;SDS011;18267;52.234;7.444;2023-07-09T07:33:49;4.35;;;3.92;;
31660;SDS011;18267;52.234;7.444;2023-07-09T07:39:30;5.97;;;4.63;;
31660;SDS011;18267;52.234;7.444;2023-07-09T07:41:56;5.43;;;4.68;;
31660;SDS011;18267;52.234;7.444;2023-07-09T07:44:32;12.13;;;4.88;;
31660;SDS011;18267;52.234;7.444;2023-07-09T07:46:58;8.05;;;4.70;;
31660;SDS011;18267;52.234;7.444;2023-07-09T07:49:23;5.78;;;4.53;;
31660;SDS011;18267;52.234;7.444;2023-07-09T07:51:49;4.85;;;4.32;;
31660;SDS011;18267;52.234;7.444;2023-07-09T07:54:27;6.90;;;5.15;;
31660;SDS011;18267;52.234;7.444;2023-07-09T07:57:52;8.07;;;4.70;;
31660;SDS011;18267;52.234;7.444;2023-07-09T08:00:33;6.43;;;4.65;;
31660;SDS011;18267;52.234;7.444;2023-07-09T08:03:56;6.97;;;4.20;;
31660;SDS011;18267;52.234;7.444;2023-07-09T08:06:25;7.00;;;4.80;;
31660;SDS011;18267;52.234;7.444;2023-07-09T08:08:55;7.32;;;4.38;;
31660;SDS011;18267;52.234;7.444;2023-07-09T08:11:22;7.47;;;4.65;;
31660;SDS011;18267;52.234;7.444;2023-07-09T08:13:49;11.77;;;4.78;;
31660;SDS011;18267;52.234;7.444;2023-07-09T08:16:32;6.38;;;3.92;;
31660;SDS011;18267;52.234;7.444;2023-07-09T08:18:57;6.40;;;4.47;;
31660;SDS011;18267;52.234;7.444;2023-07-09T08:21:23;9.40;;;4.90;;
31660;SDS011;18267;52.234;7.444;2023-07-09T08:23:49;8.98;;;4.80;;
31660;SDS011;18267;52.234;7.444;2023-07-09T08:26:15;6.93;;;4.38;;
31660;SDS011;18267;52.234;7.444;2023-07-09T08:28:40;12.57;;;4.20;;
31660;SDS011;18267;52.234;7.444;2023-07-09T08:31:09;7.35;;;4.25;;
31660;SDS011;18267;52.234;7.444;2023-07-09T08:33:36;9.38;;;4.53;;
31660;SDS011;18267;52.234;7.444;2023-07-09T08:36:28;5.63;;;4.40;;
31660;SDS011;18267;52.234;7.444;2023-07-09T08:39:44;7.70;;;4.28;;
31660;SDS011;18267;52.234;7.444;2023-07-09T08:42:42;6.72;;;4.00;;
31660;SDS011;18267;52.234;7.444;2023-07-09T08:48:42;8.68;;;3.85;;
31660;SDS011;18267;52.234;7.444;2023-07-09T08:51:41;11.05;;;4.30;;
31660;SDS011;18267;52.234;7.444;2023-07-09T08:54:57;8.57;;;4.45;;
31660;SDS011;18267;52.234;7.444;2023-07-09T08:58:31;6.65;;;4.25;;
31660;SDS011;18267;52.234;7.444;2023-07-09T09:04:43;6.20;;;4.28;;
31660;SDS011;18267;52.234;7.444;2023-07-09T09:15:41;10.57;;;4.95;;
31660;SDS011;18267;52.234;7.444;2023-07-09T09:19:06;6.03;;;4.05;;
31660;SDS011;18267;52.234;7.444;2023-07-09T09:25:24;6.40;;;4.70;;
31660;SDS011;18267;52.234;7.444;2023-07-09T09:28:47;6.75;;;4.82;;
31660;SDS011;18267;52.234;7.444;2023-07-09T09:31:55;10.02;;;5.05;;
31660;SDS011;18267;52.234;7.444;2023-07-09T09:35:17;9.70;;;5.22;;
31660;SDS011;18267;52.234;7.444;2023-07-09T09:37:52;7.75;;;4.30;;
31660;SDS011;18267;52.234;7.444;2023-07-09T09:40:19;7.18;;;4.22;;
31660;SDS011;18267;52.234;7.444;2023-07-09T09:42:49;8.43;;;5.05;;
31660;SDS011;18267;52.234;7.444;2023-07-09T09:45:17;8.20;;;4.60;;
31660;SDS011;18267;52.234;7.444;2023-07-09T09:47:46;9.85;;;4.60;;
31660;SDS011;18267;52.234;7.444;2023-07-09T09:50:18;14.57;;;5.28;;
31660;SDS011;18267;52.234;7.444;2023-07-09T09:52:47;7.00;;;4.70;;
31660;SDS011;18267;52.234;7.444;2023-07-09T09:55:19;7.43;;;4.60;;
31660;SDS011;18267;52.234;7.444;2023-07-09T09:57:51;7.53;;;4.97;;
31660;SDS011;18267;52.234;7.444;2023-07-09T10:00:23;13.55;;;4.50;;
31660;SDS011;18267;52.234;7.444;2023-07-09T10:03:32;5.60;;;4.47;;
31660;SDS011;18267;52.234;7.444;2023-07-09T10:05:59;5.20;;;4.60;;
31660;SDS011;18267;52.234;7.444;2023-07-09T10:11:27;6.57;;;3.90;;
31660;SDS011;18267;52.234;7.444;2023-07-09T10:14:18;6.72;;;4.43;;
31660;SDS011;18267;52.234;7.444;2023-07-09T10:16:54;9.27;;;4.57;;
31660;SDS011;18267;52.234;7.444;2023-07-09T10:19:29;8.23;;;4.28;;
31660;SDS011;18267;52.234;7.444;2023-07-09T10:25:33;5.85;;;4.05;;
31660;SDS011;18267;52.234;7.444;2023-07-09T10:33:57;9.13;;;4.13;;
31660;SDS011;18267;52.234;7.444;2023-07-09T10:39:18;8.50;;;3.83;;
31660;SDS011;18267;52.234;7.444;2023-07-09T10:41:55;6.80;;;3.78;;
31660;SDS011;18267;52.234;7.444;2023-07-09T10:44:38;7.82;;;3.88;;
31660;SDS011;18267;52.234;7.444;2023-07-09T10:47:09;4.45;;;3.45;;
31660;SDS011;18267;52.234;7.444;2023-07-09T10:49:48;5.13;;;3.75;;
31660;SDS011;18267;52.234;7.444;2023-07-09T10:52:22;5.78;;;3.55;;
31660;SDS011;18267;52.234;7.444;2023-07-09T10:57:52;8.00;;;3.38;;
31660;SDS011;18267;52.234;7.444;2023-07-09T11:03:32;6.43;;;3.55;;
31660;SDS011;18267;52.234;7.444;2023-07-09T11:06:03;5.03;;;3.88;;
31660;SDS011;18267;52.234;7.444;2023-07-09T11:08:34;5.25;;;3.92;;
31660;SDS011;18267;52.234;7.444;2023-07-09T11:11:06;5.82;;;3.55;;
31660;SDS011;18267;52.234;7.444;2023-07-09T11:13:53;9.80;;;3.38;;
31660;SDS011;18267;52.234;7.444;2023-07-09T11:16:27;6.47;;;3.70;;
31660;SDS011;18267;52.234;7.444;2023-07-09T11:18:58;4.03;;;3.60;;
31660;SDS011;18267;52.234;7.444;2023-07-09T11:21:28;6.40;;;3.90;;
31660;SDS011;18267;52.234;7.444;2023-07-09T11:23:55;8.15;;;3.42;;
31660;SDS011;18267;52.234;7.444;2023-07-09T11:26:29;4.13;;;3.22;;
31660;SDS011;18267;52.234;7.444;2023-07-09T11:29:09;5.38;;;3.30;;
31660;SDS011;18267;52.234;7.444;2023-07-09T11:31:41;5.53;;;3.00;;
31660;SDS011;18267;52.234;7.444;2023-07-09T11:36:46;5.40;;;2.78;;
31660;SDS011;18267;52.234;7.444;2023-07-09T11:42:01;8.48;;;2.22;;
31660;SDS011;18267;52.234;7.444;2023-07-09T11:44:31;6.90;;;2.85;;
31660;SDS011;18267;52.234;7.444;2023-07-09T11:49:59;5.90;;;2.35;;
31660;SDS011;18267;52.234;7.444;2023-07-09T11:52:34;4.13;;;2.13;;
31660;SDS011;18267;52.234;7.444;2023-07-09T11:57:48;4.20;;;2.35;;
31660;SDS011;18267;52.234;7.444;2023-07-09T12:00:18;5.53;;;2.97;;
31660;SDS011;18267;52.234;7.444;2023-07-09T12:02:44;4.45;;;2.70;;
31660;SDS011;18267;52.234;7.444;2023-07-09T12:05:10;8.18;;;3.03;;
31660;SDS011;18267;52.234;7.444;2023-07-09T12:07:37;7.20;;;3.05;;
31660;SDS011;18267;52.234;7.444;2023-07-09T12:10:04;5.47;;;3.03;;
31660;SDS011;18267;52.234;7.444;2023-07-09T12:12:53;9.27;;;3.83;;
31660;SDS011;18267;52.234;7.444;2023-07-09T12:15:24;4.68;;;2.22;;
31660;SDS011;18267;52.234;7.444;2023-07-09T12:17:53;3.88;;;2.20;;
31660;SDS011;18267;52.234;7.444;2023-07-09T12:20:20;5.90;;;2.45;;
31660;SDS011;18267;52.234;7.444;2023-07-09T12:22:46;3.53;;;2.70;;
31660;SDS011;18267;52.234;7.444;2023-07-09T12:25:22;3.50;;;2.50;;
31660;SDS011;18267;52.234;7.444;2023-07-09T12:27:50;4.30;;;3.10;;
31660;SDS011;18267;52.234;7.444;2023-07-09T12:30:16;4.68;;;3.28;;
31660;SDS011;18267;52.234;7.444;2023-07-09T12:32:44;4.60;;;3.08;;
31660;SDS011;18267;52.234;7.444;2023-07-09T12:35:12;4.28;;;2.65;;
31660;SDS011;18267;52.234;7.444;2023-07-09T12:37:39;3.63;;;3.00;;
31660;SDS011;18267;52.234;7.444;2023-07-09T12:40:16;3.28;;;2.47;;
31660;SDS011;18267;52.234;7.444;2023-07-09T12:42:47;5.20;;;2.40;;
31660;SDS011;18267;52.234;7.444;2023-07-09T12:45:16;5.70;;;3.17;;
31660;SDS011;18267;52.234;7.444;2023-07-09T12:47:47;4.18;;;2.85;;
31660;SDS011;18267;52.234;7.444;2023-07-09T12:50:28;7.65;;;3.03;;
31660;SDS011;18267;52.234;7.444;2023-07-09T12:53:15;4.03;;;2.80;;
31660;SDS011;18267;52.234;7.444;2023-07-09T12:55:48;9.68;;;3.10;;
31660;SDS011;18267;52.234;7.444;2023-07-09T12:58:19;5.53;;;2.90;;
31660;SDS011;18267;52.234;7.444;2023-07-09T13:00:54;6.15;;;2.72;;
31660;SDS011;18267;52.234;7.444;2023-07-09T13:03:21;3.88;;;2.90;;
31660;SDS011;18267;52.234;7.444;2023-07-09T13:05:56;4.15;;;2.97;;
31660;SDS011;18267;52.234;7.444;2023-07-09T13:08:24;8.02;;;3.05;;
31660;SDS011;18267;52.234;7.444;2023-07-09T13:10:51;3.85;;;2.95;;
31660;SDS011;18267;52.234;7.444;2023-07-09T13:13:19;3.45;;;2.95;;
31660;SDS011;18267;52.234;7.444;2023-07-09T13:15:57;4.43;;;3.15;;
31660;SDS011;18267;52.234;7.444;2023-07-09T13:18:32;5.55;;;3.30;;
31660;SDS011;18267;52.234;7.444;2023-07-09T13:21:05;5.28;;;3.20;;
31660;SDS011;18267;52.234;7.444;2023-07-09T13:23:43;4.43;;;3.33;;
31660;SDS011;18267;52.234;7.444;2023-07-09T13:26:12;4.07;;;3.10;;
31660;SDS011;18267;52.234;7.444;2023-07-09T13:28:43;4.85;;;3.17;;
31660;SDS011;18267;52.234;7.444;2023-07-09T13:31:35;3.78;;;3.00;;
31660;SDS011;18267;52.234;7.444;2023-07-09T13:34:01;4.10;;;2.88;;
31660;SDS011;18267;52.234;7.444;2023-07-09T13:36:33;3.50;;;2.63;;
31660;SDS011;18267;52.234;7.444;2023-07-09T13:39:00;4.65;;;3.17;;
31660;SDS011;18267;52.234;7.444;2023-07-09T13:41:40;5.90;;;3.33;;
31660;SDS011;18267;52.234;7.444;2023-07-09T13:44:14;6.63;;;2.90;;
31660;SDS011;18267;52.234;7.444;2023-07-09T13:46:43;6.25;;;2.70;;
31660;SDS011;18267;52.234;7.444;2023-07-09T13:49:13;5.22;;;3.00;;
31660;SDS011;18267;52.234;7.444;2023-07-09T13:51:48;3.28;;;2.83;;
31660;SDS011;18267;52.234;7.444;2023-07-09T13:55:03;4.85;;;2.60;;
31660;SDS011;18267;52.234;7.444;2023-07-09T13:58:13;8.95;;;3.20;;
31660;SDS011;18267;52.234;7.444;2023-07-09T14:01:52;5.97;;;2.80;;
31660;SDS011;18267;52.234;7.444;2023-07-09T14:04:25;6.40;;;3.13;;
31660;SDS011;18267;52.234;7.444;2023-07-09T14:06:51;7.50;;;2.83;;
31660;SDS011;18267;52.234;7.444;2023-07-09T14:09:33;7.07;;;3.20;;
31660;SDS011;18267;52.234;7.444;2023-07-09T14:12:07;4.53;;;2.67;;
31660;SDS011;18267;52.234;7.444;2023-07-09T14:14:33;7.22;;;3.17;;
31660;SDS011;18267;52.234;7.444;2023-07-09T14:20:42;7.93;;;3.35;;
31660;SDS011;18267;52.234;7.444;2023-07-09T14:24:12;10.65;;;2.97;;
31660;SDS011;18267;52.234;7.444;2023-07-09T14:37:22;9.25;;;2.90;;
31660;SDS011;18267;52.234;7.444;2023-07-09T14:46:45;3.88;;;3.50;;
31660;SDS011;18267;52.234;7.444;2023-07-09T14:50:21;8.27;;;3.45;;
31660;SDS011;18267;52.234;7.444;2023-07-09T14:53:12;6.20;;;2.87;;
31660;SDS011;18267;52.234;7.444;2023-07-09T14:55:51;7.05;;;3.30;;
31660;SDS011;18267;52.234;7.444;2023-07-09T14:58:18;3.40;;;2.85;;
31660;SDS011;18267;52.234;7.444;2023-07-09T15:00:45;6.57;;;2.90;;
31660;SDS011;18267;52.234;7.444;2023-07-09T15:03:17;5.45;;;3.22;;
31660;SDS011;18267;52.234;7.444;2023-07-09T15:06:55;5.55;;;2.90;;
31660;SDS011;18267;52.234;7.444;2023-07-09T15:09:54;3.83;;;3.42;;
31660;SDS011;18267;52.234;7.444;2023-07-09T15:12:45;3.95;;;3.22;;
31660;SDS011;18267;52.234;7.444;2023-07-09T15:15:12;4.93;;;2.95;;
31660;SDS011;18267;52.234;7.444;2023-07-09T15:18:39;4.30;;;2.97;;
31660;SDS011;18267;52.234;7.444;2023-07-09T15:25:22;6.15;;;3.25;;
31660;SDS011;18267;52.234;7.444;2023-07-09T15:30:52;4.68;;;3.40;;
31660;SDS011;18267;52.234;7.444;2023-07-09T15:33:50;7.78;;;3.80;;
31660;SDS011;18267;52.234;7.444;2023-07-09T15:40:36;4.85;;;3.22;;
31660;SDS011;18267;52.234;7.444;2023-07-09T15:43:22;6.57;;;3.20;;
31660;SDS011;18267;52.234;7.444;2023-07-09T15:45:49;3.75;;;3.25;;
31660;SDS011;18267;52.234;7.444;2023-07-09T15:48:32;5.57;;;3.33;;
31660;SDS011;18267;52.234;7.444;2023-07-09T15:51:00;5.53;;;3.45;;
31660;SDS011;18267;52.234;7.444;2023-07-09T15:53:29;5.18;;;3.28;;
31660;SDS011;18267;52.234;7.444;2023-07-09T15:56:00;6.47;;;3.20;;
31660;SDS011;18267;52.234;7.444;2023-07-09T15:58:29;6.55;;;3.30;;
31660;SDS011;18267;52.234;7.444;2023-07-09T16:01:02;5.35;;;3.47;;
31660;SDS011;18267;52.234;7.444;2023-07-09T16:03:27;10.63;;;3.88;;
31660;SDS011;18267;52.234;7.444;2023-07-09T16:05:54;8.18;;;3.50;;
31660;SDS011;18267;52.234;7.444;2023-07-09T16:08:20;6.60;;;3.53;;
31660;SDS011;18267;52.234;7.444;2023-07-09T16:10:52;9.13;;;3.67;;
31660;SDS011;18267;52.234;7.444;2023-07-09T16:13:19;10.13;;;3.55;;
31660;SDS011;18267;52.234;7.444;2023-07-09T16:15:46;13.38;;;3.53;;
31660;SDS011;18267;52.234;7.444;2023-07-09T16:18:13;66.57;;;4.50;;
31660;SDS011;18267;52.234;7.444;2023-07-09T16:20:40;14.63;;;2.45;;
31660;SDS011;18267;52.234;7.444;2023-07-09T16:23:07;8.13;;;2.15;;
31660;SDS011;18267;52.234;7.444;2023-07-09T16:25:51;3.05;;;2.20;;
31660;SDS011;18267;52.234;7.444;2023-07-09T16:28:17;5.78;;;2.25;;
31660;SDS011;18267;52.234;7.444;2023-07-09T16:30:44;7.63;;;2.35;;
31660;SDS011;18267;52.234;7.444;2023-07-09T16:33:11;10.13;;;2.83;;
31660;SDS011;18267;52.234;7.444;2023-07-09T16:35:37;6.32;;;2.50;;
31660;SDS011;18267;52.234;7.444;2023-07-09T16:38:03;16.58;;;3.08;;
31660;SDS011;18267;52.234;7.444;2023-07-09T16:40:30;7.18;;;2.70;;
31660;SDS011;18267;52.234;7.444;2023-07-09T16:42:58;10.27;;;2.97;;
31660;SDS011;18267;52.234;7.444;2023-07-09T16:45:26;7.43;;;2.90;;
31660;SDS011;18267;52.234;7.444;2023-07-09T16:47:52;9.43;;;1.92;;
31660;SDS011;18267;52.234;7.444;2023-07-09T16:50:19;4.57;;;1.85;;
31660;SDS011;18267;52.234;7.444;2023-07-09T16:52:47;9.85;;;2.08;;